»·PEaware :: DAL258 KSLC-KBOI

DAL258 :: KSLC-KBOI

FLIGHT INFORMATION

Flight Status: Arrived
Operator:
Delta Air Lines
More flights by this operator :: More flights under this callsign
Pilot: Brad M. (22842)
Aircraft: AIRBUS A320
(A320)
More flights by this aircraft type
Origin: KSLC Salt Lake City Intl
United States
Destination: KBOI Boise Air Terminal/Gowen
United States
More flights between these airports :: More routes between these airports
Route: CGULL1 TWF BROPH SPUUD3
File this flight plan on PilotEdge
Remarks:
Altitude:
(Current/Filed)
28,000ft
Speed:
(Current/Filed)
350kts
Departed: 17-Jan-19 04:57 PM
Arrived: 17-Jan-19 05:56 PM
Distance/Time
Traveled:
252nm/0:59
Distance/Time
To Go:
Arrived

Flight Plot

Page will automatically refresh every two minutes.

Flight plan parsing failed; only flown route is shown


Map Options




Map Legend


Flown Route
Filed Route
Departure Airport
Arrival Airport
Navaid (VOR, NDB)
Fix

Horizontal Profiles

Position Reports

Time Latitude Longitude Heading Altitude Ground
Speed
17-Jan-19 16:12 40.788104 -111.980976 283 4236ft 0kts
17-Jan-19 16:13 40.788104 -111.980976 283 4236ft 0kts
17-Jan-19 16:14 40.788104 -111.980976 283 4236ft 0kts
17-Jan-19 16:15 40.788104 -111.980976 283 4236ft 0kts
17-Jan-19 16:16 40.788104 -111.980976 283 4236ft 0kts
17-Jan-19 16:17 40.788104 -111.980976 284 4236ft 0kts
17-Jan-19 16:18 40.788104 -111.980976 284 4236ft 0kts
17-Jan-19 16:19 40.788104 -111.980976 284 4236ft 0kts
17-Jan-19 16:19 40.788104 -111.980976 284 4236ft 0kts
17-Jan-19 16:21 40.788104 -111.980976 284 4236ft 0kts
17-Jan-19 16:22 40.788104 -111.980976 284 4236ft 0kts
17-Jan-19 16:23 40.788104 -111.980976 284 4236ft 0kts
17-Jan-19 16:23 40.788104 -111.980976 284 4236ft 0kts
17-Jan-19 16:24 40.788104 -111.980976 284 4236ft 0kts
17-Jan-19 16:26 40.788104 -111.980976 284 4236ft 0kts
17-Jan-19 16:27 40.788104 -111.980976 284 4236ft 0kts
17-Jan-19 16:27 40.788104 -111.980976 284 4236ft 0kts
17-Jan-19 16:29 40.788104 -111.980976 284 4236ft 0kts
17-Jan-19 16:29 40.788104 -111.980976 284 4236ft 0kts
17-Jan-19 16:30 40.788104 -111.980976 284 4236ft 0kts
17-Jan-19 16:31 40.788104 -111.980976 284 4236ft 0kts
17-Jan-19 16:32 40.788104 -111.980976 284 4236ft 0kts
17-Jan-19 16:33 40.788104 -111.980976 284 4236ft 0kts
17-Jan-19 16:34 40.788104 -111.980976 284 4236ft 0kts
17-Jan-19 16:35 40.788104 -111.980976 284 4236ft 0kts
17-Jan-19 16:36 40.788104 -111.980976 284 4236ft 0kts
17-Jan-19 16:37 40.788104 -111.980976 284 4236ft 0kts
17-Jan-19 16:38 40.788104 -111.980976 284 4236ft 0kts
17-Jan-19 16:39 40.788104 -111.980976 284 4236ft 0kts
17-Jan-19 16:40 40.788104 -111.980976 284 4236ft 0kts
17-Jan-19 16:41 40.788104 -111.980976 284 4236ft 0kts
17-Jan-19 16:42 40.788104 -111.980975 284 4236ft 0kts
17-Jan-19 16:43 40.787931 -111.980312 323 4236ft 2kts
17-Jan-19 16:44 40.787623 -111.980270 19 4236ft 0kts
17-Jan-19 16:45 40.787623 -111.980269 19 4236ft 0kts
17-Jan-19 16:46 40.787637 -111.980263 19 4236ft 0kts
17-Jan-19 16:47 40.789052 -111.979872 355 4236ft 6kts
17-Jan-19 16:48 40.790537 -111.979431 355 4236ft 5kts
17-Jan-19 16:49 40.792024 -111.978271 84 4236ft 11kts
17-Jan-19 16:50 40.794562 -111.977611 354 4236ft 10kts
17-Jan-19 16:51 40.797528 -111.977951 355 4236ft 13kts
17-Jan-19 16:52 40.801401 -111.978404 355 4236ft 13kts
17-Jan-19 16:53 40.805273 -111.978407 354 4236ft 13kts
17-Jan-19 16:54 40.807135 -111.978484 26 4236ft 0kts
17-Jan-19 16:55 40.806153 -111.976798 175 4236ft 28kts
17-Jan-19 16:56 40.772328 -111.973511 176 5098ft 185kts
17-Jan-19 16:57 40.750757 -112.025421 298 7531ft 236kts
17-Jan-19 16:58 40.811333 -112.086501 322 9736ft 302kts
17-Jan-19 16:59 40.879837 -112.159158 306 11775ft 343kts
17-Jan-19 17:00 40.949781 -112.257374 307 13381ft 380kts
17-Jan-19 17:01 41.023823 -112.361189 307 15468ft 390kts
17-Jan-19 17:02 41.103994 -112.454619 322 17233ft 409kts
17-Jan-19 17:03 41.198663 -112.539220 317 18803ft 416kts
17-Jan-19 17:04 41.289011 -112.636025 308 20220ft 419kts
17-Jan-19 17:05 41.368347 -112.751886 306 21568ft 426kts
17-Jan-19 17:06 41.447986 -112.871218 304 22761ft 435kts
17-Jan-19 17:07 41.528046 -112.994060 304 23827ft 444kts
17-Jan-19 17:08 41.609961 -113.120076 303 24860ft 451kts
17-Jan-19 17:09 41.692413 -113.247420 303 25955ft 453kts
17-Jan-19 17:10 41.775115 -113.375738 302 27224ft 452kts
17-Jan-19 17:11 41.857082 -113.503423 301 27924ft 451kts
17-Jan-19 17:12 41.939528 -113.632442 301 27926ft 453kts
17-Jan-19 17:13 42.019725 -113.758464 300 27910ft 451kts
17-Jan-19 17:14 42.100105 -113.885331 300 27901ft 452kts
17-Jan-19 17:15 42.179665 -114.011395 301 27900ft 452kts
17-Jan-19 17:16 42.262360 -114.142281 303 27809ft 464kts
17-Jan-19 17:17 42.344673 -114.273164 304 26885ft 464kts
17-Jan-19 17:18 42.427274 -114.405122 304 25937ft 462kts
17-Jan-19 17:19 42.510051 -114.537580 304 24986ft 462kts
17-Jan-19 17:20 42.592786 -114.669570 304 24027ft 454kts
17-Jan-19 17:21 42.673759 -114.799426 304 23049ft 445kts
17-Jan-19 17:22 42.755232 -114.924484 307 22070ft 439kts
17-Jan-19 17:23 42.838430 -115.044105 308 21094ft 431kts
17-Jan-19 17:24 42.920065 -115.161956 308 20116ft 423kts
17-Jan-19 17:25 42.999677 -115.277426 308 19141ft 415kts
17-Jan-19 17:26 43.077807 -115.391157 308 17615ft 400kts
17-Jan-19 17:27 43.150058 -115.496752 308 16027ft 365kts
17-Jan-19 17:28 43.213789 -115.590053 307 15497ft 301kts
17-Jan-19 17:29 43.267819 -115.669504 305 14465ft 280kts
17-Jan-19 17:30 43.304426 -115.759965 292 13132ft 265kts
17-Jan-19 17:31 43.337656 -115.848951 293 11850ft 257kts
17-Jan-19 17:32 43.369876 -115.935560 293 10618ft 253kts
17-Jan-19 17:33 43.402303 -116.022951 294 9374ft 253kts
17-Jan-19 17:34 43.434373 -116.109643 295 8150ft 252kts
17-Jan-19 17:35 43.466226 -116.196033 295 7044ft 256kts
17-Jan-19 17:36 43.495511 -116.281900 294 7024ft 240kts
17-Jan-19 17:37 43.524285 -116.361800 310 7024ft 230kts
17-Jan-19 17:38 43.582330 -116.363531 46 6192ft 238kts
17-Jan-19 17:39 43.582863 -116.282838 116 5122ft 199kts
17-Jan-19 17:40 43.557826 -116.210881 116 6995ft 216kts
17-Jan-19 17:41 43.532301 -116.135347 116 7024ft 227kts
17-Jan-19 17:42 43.505107 -116.054948 116 7024ft 229kts
17-Jan-19 17:43 43.475325 -115.977389 147 7027ft 226kts
17-Jan-19 17:44 43.417694 -115.989696 204 7025ft 218kts
17-Jan-19 17:45 43.368588 -116.033257 257 7028ft 216kts
17-Jan-19 17:46 43.396662 -116.104180 306 7025ft 219kts
17-Jan-19 17:47 43.434259 -116.170081 306 6573ft 217kts
17-Jan-19 17:48 43.472437 -116.236789 307 6425ft 219kts
17-Jan-19 17:49 43.503057 -116.304176 294 5595ft 201kts
17-Jan-19 17:50 43.530602 -116.369879 324 4702ft 187kts
17-Jan-19 17:51 43.578422 -116.368706 38 4675ft 178kts
17-Jan-19 17:52 43.591115 -116.310534 101 4075ft 149kts
17-Jan-19 17:53 43.575547 -116.258859 115 3100ft 145kts
17-Jan-19 17:54 43.562954 -116.221891 115 2848ft 54kts
17-Jan-19 17:55 43.562279 -116.216918 354 2848ft 0kts
17-Jan-19 17:56 43.564571 -116.217242 332 2848ft 12kts
17-Jan-19 17:57 43.566303 -116.220546 55 2848ft 8kts
17-Jan-19 17:58 43.566740 -116.219258 17 2848ft 0kts
17-Jan-19 17:59 43.566740 -116.219258 17 2848ft 0kts
17-Jan-19 18:00 43.566740 -116.219258 17 2848ft 0kts
17-Jan-19 18:01 43.566740 -116.219258 17 2848ft 0kts

Navigation Log

Ident Type
Flight plan parsing failed, navigation log unavailable